Time;durP1;ratioP1;P1;durP2;ratioP2;P2;SDS_P1;SDS_P2;PMS_P1;PMS_P2;Temp;Humidity;BMP_temperature;BMP_pressure;BME280_temperature;BME280_humidity;BME280_pressure;Samples;Min_cycle;Max_cycle;Signal;HPM_P1;HPM_P2
2021/10/31 00:00:43;;;;;;;;;;;13.30;99.90;;;;;;6192947;23;19897;-82
2021/10/31 00:03:09;;;;;;;;;;;13.40;99.90;;;;;;6193067;23;19903;-82
2021/10/31 00:05:34;;;;;;;;;;;13.40;99.90;;;;;;6177077;23;20204;-82
2021/10/31 00:08:00;;;;;;;;;;;13.40;99.90;;;;;;6191617;23;19923;-83
2021/10/31 00:10:25;;;;;;;;;;;13.50;99.90;;;;;;6192898;23;19896;-83
2021/10/31 00:12:51;;;;;;;;;;;13.40;99.90;;;;;;6193317;23;20019;-83
2021/10/31 00:15:16;;;;;;;;;;;13.40;99.90;;;;;;6193000;23;19896;-83
2021/10/31 00:17:42;;;;;;;;;;;13.50;99.90;;;;;;6192804;23;19896;-83
2021/10/31 00:20:08;;;;;;;;;;;13.60;99.90;;;;;;6193982;23;19903;-83
2021/10/31 00:22:34;;;;;;;;;;;13.50;99.90;;;;;;6191674;23;19896;-82
2021/10/31 00:24:59;;;;;;;;;;;13.60;99.90;;;;;;6191519;23;19903;-82
2021/10/31 00:27:25;;;;;;;;;;;13.70;99.90;;;;;;6193549;23;19955;-83
2021/10/31 00:29:50;;;;;;;;;;;13.70;99.90;;;;;;6191229;23;19920;-82
2021/10/31 00:32:16;;;;;;;;;;;13.70;99.90;;;;;;6192666;23;19904;-82
2021/10/31 00:34:41;;;;;;;;;;;13.70;99.90;;;;;;6192313;23;19911;-83
2021/10/31 00:37:07;;;;;;;;;;;13.80;99.90;;;;;;6191432;23;19897;-82
2021/10/31 00:39:33;;;;;;;;;;;13.80;99.90;;;;;;6193028;23;19903;-82
2021/10/31 00:41:58;;;;;;;;;;;13.80;99.90;;;;;;6193134;23;19948;-83
2021/10/31 00:44:24;;;;;;;;;;;13.90;99.90;;;;;;6193358;23;19896;-82
2021/10/31 00:46:49;;;;;;;;;;;13.80;99.90;;;;;;6192281;23;20085;-82
2021/10/31 00:49:15;;;;;;;;;;;13.80;99.90;;;;;;6192425;23;20096;-82
2021/10/31 00:51:41;;;;;;;;;;;13.90;99.90;;;;;;6192878;23;19911;-82
2021/10/31 00:54:07;;;;;;;;;;;13.90;99.90;;;;;;6191295;23;19901;-82
2021/10/31 00:56:33;;;;;;;;;;;13.90;99.90;;;;;;6192276;23;19912;-82
2021/10/31 00:58:59;;;;;;;;;;;13.90;99.90;;;;;;6192899;23;19963;-82
2021/10/31 01:01:27;;;;;;;;;;;13.90;99.90;;;;;;6191664;23;19900;-83
2021/10/31 01:03:52;;;;;;;;;;;13.90;99.90;;;;;;6193403;23;19903;-81
2021/10/31 01:06:34;;;;;;;;;;;13.80;99.90;;;;;;6192583;23;19896;-82
2021/10/31 01:09:26;;;;;;;;;;;13.80;99.90;;;;;;6192848;23;19923;-82
2021/10/31 01:11:54;;;;;;;;;;;13.70;99.90;;;;;;6136215;23;19959;-82
2021/10/31 01:14:28;;;;;;;;;;;13.70;99.90;;;;;;6166999;23;19897;-82
2021/10/31 01:17:07;;;;;;;;;;;13.70;99.90;;;;;;6193293;23;19896;-82
2021/10/31 01:20:06;;;;;;;;;;;13.60;99.90;;;;;;6195416;23;19896;-82
2021/10/31 01:22:32;;;;;;;;;;;13.70;99.90;;;;;;6172600;23;19896;-82
2021/10/31 01:24:57;;;;;;;;;;;13.60;99.90;;;;;;6194635;23;20101;-83
2021/10/31 01:27:29;;;;;;;;;;;13.60;99.90;;;;;;6194808;23;19908;-82
2021/10/31 01:30:10;;;;;;;;;;;13.60;99.90;;;;;;6194360;23;20088;-82
2021/10/31 01:32:44;;;;;;;;;;;13.50;99.90;;;;;;6194655;23;19905;-83
2021/10/31 01:35:19;;;;;;;;;;;13.50;99.90;;;;;;6194654;23;20243;-82
2021/10/31 01:37:59;;;;;;;;;;;13.50;99.90;;;;;;6193381;23;19920;-81
2021/10/31 01:40:25;;;;;;;;;;;13.50;99.90;;;;;;6194740;23;19903;-82
2021/10/31 01:42:50;;;;;;;;;;;13.50;99.90;;;;;;6194448;23;19896;-82
2021/10/31 01:45:42;;;;;;;;;;;13.40;99.90;;;;;;6194629;23;19919;-82
2021/10/31 01:48:26;;;;;;;;;;;13.40;99.90;;;;;;6148401;23;19897;-82
2021/10/31 01:50:55;;;;;;;;;;;13.40;99.90;;;;;;6192790;23;20060;-82
2021/10/31 01:53:32;;;;;;;;;;;13.40;99.90;;;;;;6194409;23;19955;-82
2021/10/31 01:56:01;;;;;;;;;;;13.40;99.90;;;;;;6194558;23;19910;-83
2021/10/31 01:58:30;;;;;;;;;;;13.30;99.90;;;;;;6194183;23;19896;-82
2021/10/31 02:00:57;;;;;;;;;;;13.30;99.90;;;;;;6194429;23;19896;-82
2021/10/31 02:03:23;;;;;;;;;;;13.20;99.90;;;;;;6194798;23;19956;-82
2021/10/31 02:05:49;;;;;;;;;;;13.10;99.90;;;;;;6194954;23;19947;-82
2021/10/31 02:08:15;;;;;;;;;;;12.90;99.90;;;;;;6193374;23;19896;-83
2021/10/31 02:10:42;;;;;;;;;;;12.90;99.90;;;;;;6194316;23;20184;-83
2021/10/31 02:13:08;;;;;;;;;;;12.90;99.90;;;;;;6194999;23;20211;-82
2021/10/31 02:15:35;;;;;;;;;;;12.80;99.90;;;;;;6194115;23;19964;-82
2021/10/31 02:18:01;;;;;;;;;;;12.80;99.90;;;;;;6194215;23;19900;-82
2021/10/31 02:20:27;;;;;;;;;;;12.80;99.90;;;;;;6194324;23;19896;-82
2021/10/31 02:22:54;;;;;;;;;;;12.80;99.90;;;;;;6194626;23;19951;-82
2021/10/31 02:25:20;;;;;;;;;;;12.70;99.90;;;;;;6194586;23;19896;-82
2021/10/31 02:27:46;;;;;;;;;;;12.70;99.90;;;;;;6194336;23;19974;-82
2021/10/31 02:30:11;;;;;;;;;;;12.80;99.90;;;;;;6194870;23;19903;-82
2021/10/31 02:32:37;;;;;;;;;;;12.80;99.90;;;;;;6193888;23;19911;-82
2021/10/31 02:35:05;;;;;;;;;;;12.70;99.90;;;;;;6194420;23;19896;-82
2021/10/31 02:37:31;;;;;;;;;;;12.70;99.90;;;;;;6194480;23;20219;-82
2021/10/31 02:39:56;;;;;;;;;;;12.70;99.90;;;;;;6194114;23;20028;-82
2021/10/31 02:42:22;;;;;;;;;;;12.70;99.90;;;;;;6193926;23;20188;-82
2021/10/31 02:44:48;;;;;;;;;;;12.80;99.90;;;;;;6193773;23;20061;-82
2021/10/31 02:47:21;;;;;;;;;;;12.80;99.90;;;;;;6193752;23;19896;-82
2021/10/31 02:49:46;;;;;;;;;;;12.80;99.90;;;;;;6194081;23;20189;-82
2021/10/31 02:52:15;;;;;;;;;;;12.90;99.90;;;;;;6194774;23;19904;-82
2021/10/31 02:54:51;;;;;;;;;;;12.80;99.90;;;;;;6192194;23;19946;-82
2021/10/31 02:57:23;;;;;;;;;;;12.90;99.90;;;;;;6193939;23;19935;-82
2021/10/31 03:00:00;;;;;;;;;;;12.90;99.90;;;;;;6192429;23;19900;-82
2021/10/31 03:02:26;;;;;;;;;;;13.00;99.90;;;;;;6193500;23;19896;-82
2021/10/31 03:04:52;;;;;;;;;;;13.00;99.90;;;;;;6191939;23;19947;-82
2021/10/31 03:07:20;;;;;;;;;;;13.00;99.90;;;;;;6194180;23;19907;-82
2021/10/31 03:09:46;;;;;;;;;;;13.00;99.90;;;;;;6193378;23;19896;-83
2021/10/31 03:12:12;;;;;;;;;;;13.00;99.90;;;;;;6193559;23;20255;-82
2021/10/31 03:14:38;;;;;;;;;;;12.90;99.90;;;;;;6193814;23;19896;-82
2021/10/31 03:17:04;;;;;;;;;;;12.90;99.90;;;;;;6193523;23;19902;-81
2021/10/31 03:19:30;;;;;;;;;;;12.90;99.90;;;;;;6194271;23;19896;-82
2021/10/31 03:21:56;;;;;;;;;;;12.80;99.90;;;;;;6192437;23;19939;-83
2021/10/31 03:24:21;;;;;;;;;;;12.70;99.90;;;;;;6193663;23;19896;-81
2021/10/31 03:26:47;;;;;;;;;;;12.80;99.90;;;;;;6191773;23;19908;-82
2021/10/31 03:29:13;;;;;;;;;;;12.70;99.90;;;;;;6193282;23;20084;-81
2021/10/31 03:31:39;;;;;;;;;;;12.80;99.90;;;;;;6192032;23;19915;-81
2021/10/31 03:34:04;;;;;;;;;;;12.80;99.90;;;;;;6193779;23;19906;-82
2021/10/31 03:36:30;;;;;;;;;;;12.80;99.90;;;;;;6193471;23;19904;-82
2021/10/31 03:38:56;;;;;;;;;;;12.90;99.90;;;;;;6193935;23;19939;-82
2021/10/31 03:41:21;;;;;;;;;;;13.00;99.90;;;;;;6193628;23;19904;-82
2021/10/31 03:43:47;;;;;;;;;;;13.00;99.90;;;;;;6193814;23;19919;-82
2021/10/31 03:46:12;;;;;;;;;;;13.00;99.90;;;;;;6193590;23;20153;-82
2021/10/31 03:48:38;;;;;;;;;;;13.00;99.90;;;;;;6193021;23;19904;-82
2021/10/31 03:51:04;;;;;;;;;;;12.90;99.90;;;;;;6193438;23;20186;-82
2021/10/31 03:53:29;;;;;;;;;;;13.00;99.90;;;;;;6192875;23;20095;-82
2021/10/31 03:55:55;;;;;;;;;;;13.00;99.90;;;;;;6166990;23;19920;-82
2021/10/31 03:58:20;;;;;;;;;;;13.00;99.90;;;;;;6193323;23;19910;-82
2021/10/31 04:00:46;;;;;;;;;;;13.00;99.90;;;;;;6191754;23;19896;-82
2021/10/31 04:03:12;;;;;;;;;;;13.00;99.90;;;;;;6193076;23;19943;-82
2021/10/31 04:05:37;;;;;;;;;;;13.00;99.90;;;;;;6192826;23;19983;-82
2021/10/31 04:08:03;;;;;;;;;;;13.00;99.90;;;;;;6193492;23;20260;-82
2021/10/31 04:10:29;;;;;;;;;;;13.00;99.90;;;;;;6193327;23;20113;-82
2021/10/31 04:12:55;;;;;;;;;;;13.00;99.90;;;;;;6192837;23;20218;-82
2021/10/31 04:15:21;;;;;;;;;;;13.00;99.90;;;;;;6192716;23;19896;-82
2021/10/31 04:17:46;;;;;;;;;;;13.00;99.90;;;;;;6193202;23;19896;-82
2021/10/31 04:20:12;;;;;;;;;;;13.00;99.90;;;;;;6191595;23;20202;-82
2021/10/31 04:22:38;;;;;;;;;;;12.90;99.90;;;;;;6193521;23;19903;-82
2021/10/31 04:25:05;;;;;;;;;;;12.90;99.90;;;;;;6193224;23;20329;-82
2021/10/31 04:27:32;;;;;;;;;;;13.00;99.90;;;;;;6192950;23;19960;-82
2021/10/31 04:29:57;;;;;;;;;;;13.00;99.90;;;;;;6193286;23;20147;-82
2021/10/31 04:32:23;;;;;;;;;;;13.00;99.90;;;;;;6192547;23;19928;-82
2021/10/31 04:34:49;;;;;;;;;;;13.10;99.90;;;;;;6193391;23;20235;-81
2021/10/31 04:37:16;;;;;;;;;;;13.10;99.90;;;;;;6191661;23;19919;-81
2021/10/31 04:39:42;;;;;;;;;;;13.20;99.90;;;;;;6192475;23;19896;-82
2021/10/31 04:42:10;;;;;;;;;;;13.20;99.90;;;;;;6193119;23;20210;-81
2021/10/31 04:44:35;;;;;;;;;;;13.20;99.90;;;;;;6193283;23;20096;-81
2021/10/31 04:47:01;;;;;;;;;;;13.20;99.90;;;;;;6193254;23;19896;-82
2021/10/31 04:49:27;;;;;;;;;;;13.20;99.90;;;;;;6192853;23;19897;-82
2021/10/31 04:51:52;;;;;;;;;;;13.30;99.90;;;;;;6192477;23;19920;-81
2021/10/31 04:54:18;;;;;;;;;;;13.30;99.90;;;;;;6194953;23;19959;-81
2021/10/31 04:56:44;;;;;;;;;;;13.30;99.90;;;;;;6195011;23;19898;-81
2021/10/31 04:59:09;;;;;;;;;;;13.20;99.90;;;;;;6194833;23;19926;-82
2021/10/31 05:01:35;;;;;;;;;;;13.30;99.90;;;;;;6195138;23;19902;-82
2021/10/31 05:04:00;;;;;;;;;;;13.30;99.90;;;;;;6194997;23;19900;-82
2021/10/31 05:06:26;;;;;;;;;;;13.30;99.90;;;;;;6194972;23;19896;-82
2021/10/31 05:08:51;;;;;;;;;;;13.30;99.90;;;;;;6194269;23;19903;-82
2021/10/31 05:11:17;;;;;;;;;;;13.40;99.90;;;;;;6193755;23;19911;-81
2021/10/31 05:13:42;;;;;;;;;;;13.40;99.90;;;;;;6194940;23;19900;-81
2021/10/31 05:16:08;;;;;;;;;;;13.40;99.90;;;;;;6195300;23;19948;-82
2021/10/31 05:18:34;;;;;;;;;;;13.50;99.90;;;;;;6195271;23;19897;-82
2021/10/31 05:21:00;;;;;;;;;;;13.50;99.90;;;;;;6195015;23;19935;-82
2021/10/31 05:23:26;;;;;;;;;;;13.50;99.90;;;;;;6194672;23;19919;-81
2021/10/31 05:25:52;;;;;;;;;;;13.60;99.90;;;;;;6195265;23;20179;-82
2021/10/31 05:28:17;;;;;;;;;;;13.60;99.90;;;;;;6194801;23;19954;-82
2021/10/31 05:30:43;;;;;;;;;;;13.60;99.90;;;;;;6194650;23;19939;-82
2021/10/31 05:33:09;;;;;;;;;;;13.60;99.90;;;;;;6189959;23;20318;-82
2021/10/31 05:35:35;;;;;;;;;;;13.60;99.90;;;;;;6186946;23;19913;-82
2021/10/31 05:38:01;;;;;;;;;;;13.50;99.90;;;;;;6194182;23;20085;-82
2021/10/31 05:40:27;;;;;;;;;;;13.50;99.90;;;;;;6194434;23;19896;-81
2021/10/31 05:42:53;;;;;;;;;;;13.50;99.90;;;;;;6194607;23;19918;-81
2021/10/31 05:45:18;;;;;;;;;;;13.50;99.90;;;;;;6192967;23;19897;-81
2021/10/31 05:47:44;;;;;;;;;;;13.50;99.90;;;;;;6194954;23;19942;-81
2021/10/31 05:50:11;;;;;;;;;;;13.50;99.90;;;;;;6194082;23;20036;-81
2021/10/31 05:52:37;;;;;;;;;;;13.50;99.90;;;;;;6194033;23;19948;-81
2021/10/31 05:55:06;;;;;;;;;;;13.50;99.90;;;;;;6194477;23;19903;-81
2021/10/31 05:57:32;;;;;;;;;;;13.40;99.90;;;;;;6194289;23;19903;-82
2021/10/31 05:59:57;;;;;;;;;;;13.40;99.90;;;;;;6194529;23;19896;-82
2021/10/31 06:02:23;;;;;;;;;;;13.40;99.90;;;;;;6195289;23;19947;-82
2021/10/31 06:04:49;;;;;;;;;;;13.40;99.90;;;;;;6194359;23;19900;-82
2021/10/31 06:07:15;;;;;;;;;;;13.40;99.90;;;;;;6193223;23;19900;-81
2021/10/31 06:09:41;;;;;;;;;;;13.30;99.90;;;;;;6194189;23;19896;-82
2021/10/31 06:12:08;;;;;;;;;;;13.30;99.90;;;;;;6192619;23;19966;-81
2021/10/31 06:14:38;;;;;;;;;;;13.30;99.90;;;;;;6193278;23;19896;-82
2021/10/31 06:17:04;;;;;;;;;;;13.30;99.90;;;;;;6193272;23;20096;-83
2021/10/31 06:19:30;;;;;;;;;;;13.30;99.90;;;;;;6183530;23;20234;-85
2021/10/31 06:21:55;;;;;;;;;;;13.30;99.90;;;;;;6183295;23;19900;-84
2021/10/31 06:24:21;;;;;;;;;;;13.40;99.90;;;;;;6181616;23;19987;-84
2021/10/31 06:26:46;;;;;;;;;;;13.40;99.90;;;;;;6182744;23;19947;-84
2021/10/31 06:29:13;;;;;;;;;;;13.40;99.90;;;;;;6182944;23;19907;-84
2021/10/31 06:31:39;;;;;;;;;;;13.40;99.90;;;;;;6182889;23;19986;-84
2021/10/31 06:34:04;;;;;;;;;;;13.40;99.90;;;;;;6182836;23;19946;-84
2021/10/31 06:36:30;;;;;;;;;;;13.40;99.90;;;;;;6182966;23;20314;-84
2021/10/31 06:38:56;;;;;;;;;;;13.40;99.90;;;;;;6182907;23;19900;-84
2021/10/31 06:41:21;;;;;;;;;;;13.40;99.90;;;;;;6189133;23;19903;-85
2021/10/31 06:43:47;;;;;;;;;;;13.40;99.90;;;;;;6190114;23;19927;-84
2021/10/31 06:46:12;;;;;;;;;;;13.40;99.90;;;;;;6187004;23;19920;-84
2021/10/31 06:48:38;;;;;;;;;;;13.40;99.90;;;;;;6194839;23;19948;-84
2021/10/31 06:51:04;;;;;;;;;;;13.40;99.90;;;;;;6193998;23;20181;-85
2021/10/31 06:53:29;;;;;;;;;;;13.40;99.90;;;;;;6193893;23;19904;-84
2021/10/31 06:55:55;;;;;;;;;;;13.40;99.90;;;;;;6194027;23;19927;-84
2021/10/31 06:58:20;;;;;;;;;;;13.50;99.90;;;;;;6183439;23;20396;-84
2021/10/31 07:00:46;;;;;;;;;;;13.50;99.90;;;;;;6182531;23;19925;-84
2021/10/31 07:03:11;;;;;;;;;;;13.50;99.90;;;;;;6185669;23;20234;-85
2021/10/31 07:05:37;;;;;;;;;;;13.50;99.90;;;;;;6185767;23;19987;-84
2021/10/31 07:08:03;;;;;;;;;;;13.50;99.90;;;;;;6184273;23;19963;-84
2021/10/31 07:10:28;;;;;;;;;;;13.50;99.90;;;;;;6184746;23;19947;-84
2021/10/31 07:12:54;;;;;;;;;;;13.50;99.90;;;;;;6184453;23;19908;-84
2021/10/31 07:15:19;;;;;;;;;;;13.60;99.90;;;;;;6184830;23;19907;-84
2021/10/31 07:17:45;;;;;;;;;;;13.60;99.90;;;;;;6185125;23;19900;-85
2021/10/31 07:20:13;;;;;;;;;;;13.60;99.90;;;;;;6184729;23;19936;-84
2021/10/31 07:22:40;;;;;;;;;;;13.60;99.90;;;;;;6183700;23;19907;-85
2021/10/31 07:25:06;;;;;;;;;;;13.70;99.90;;;;;;6182005;23;19955;-85
2021/10/31 07:27:32;;;;;;;;;;;13.70;99.90;;;;;;6182373;23;19912;-84
2021/10/31 07:29:57;;;;;;;;;;;13.70;99.90;;;;;;6182319;23;19943;-84
2021/10/31 07:32:23;;;;;;;;;;;13.80;99.90;;;;;;6182599;23;19915;-84
2021/10/31 07:34:48;;;;;;;;;;;13.90;99.90;;;;;;6182596;23;19900;-85
2021/10/31 07:37:15;;;;;;;;;;;14.00;99.90;;;;;;6182819;23;19900;-85
2021/10/31 07:39:42;;;;;;;;;;;14.00;99.90;;;;;;6182790;23;19954;-85
2021/10/31 07:42:07;;;;;;;;;;;14.10;99.90;;;;;;6181136;23;19958;-85
2021/10/31 07:44:33;;;;;;;;;;;14.20;99.90;;;;;;6182932;23;20342;-85
2021/10/31 07:46:58;;;;;;;;;;;14.20;99.90;;;;;;6184500;23;19947;-85
2021/10/31 07:49:24;;;;;;;;;;;14.30;99.90;;;;;;6181995;23;19901;-85
2021/10/31 07:51:51;;;;;;;;;;;14.30;99.90;;;;;;6184245;23;19904;-85
2021/10/31 07:54:21;;;;;;;;;;;14.30;99.90;;;;;;6186084;23;20349;-85
2021/10/31 07:56:48;;;;;;;;;;;14.40;99.90;;;;;;6185661;23;20344;-86
2021/10/31 07:59:13;;;;;;;;;;;14.40;99.90;;;;;;6183370;23;19900;-85
2021/10/31 08:01:39;;;;;;;;;;;14.40;99.90;;;;;;6183723;23;19903;-86
2021/10/31 08:04:04;;;;;;;;;;;14.50;99.90;;;;;;6182636;23;19908;-86
2021/10/31 08:06:30;;;;;;;;;;;14.60;99.90;;;;;;6182735;23;19907;-86
2021/10/31 08:08:55;;;;;;;;;;;14.60;99.90;;;;;;6182009;23;19946;-85
2021/10/31 08:11:21;;;;;;;;;;;14.60;99.90;;;;;;6182464;23;19904;-86
2021/10/31 08:13:47;;;;;;;;;;;14.60;99.90;;;;;;6183460;23;20293;-88
2021/10/31 08:16:13;;;;;;;;;;;14.70;99.90;;;;;;6184125;23;19900;-86
2021/10/31 08:18:38;;;;;;;;;;;14.80;99.90;;;;;;6183382;23;19900;-86
2021/10/31 08:21:04;;;;;;;;;;;14.80;99.90;;;;;;6182611;23;19900;-86
2021/10/31 08:23:29;;;;;;;;;;;14.90;99.90;;;;;;6182579;23;19922;-85
2021/10/31 08:25:55;;;;;;;;;;;14.90;99.90;;;;;;6182783;23;19905;-85
2021/10/31 08:28:21;;;;;;;;;;;14.90;99.90;;;;;;6181823;23;19958;-87
2021/10/31 08:30:57;;;;;;;;;;;14.90;99.90;;;;;;6180909;23;19931;-88
2021/10/31 08:33:25;;;;;;;;;;;14.90;99.90;;;;;;6180887;23;19908;-88
2021/10/31 08:35:50;;;;;;;;;;;15.00;99.90;;;;;;6182793;23;19951;-86
2021/10/31 08:38:17;;;;;;;;;;;15.00;99.90;;;;;;6182637;23;20329;-87
2021/10/31 08:40:43;;;;;;;;;;;15.10;99.90;;;;;;6182701;23;19900;-88
2021/10/31 08:43:09;;;;;;;;;;;15.10;99.90;;;;;;6188219;23;19900;-86
2021/10/31 08:45:36;;;;;;;;;;;15.20;99.90;;;;;;6182676;23;19900;-87
2021/10/31 08:48:01;;;;;;;;;;;15.20;99.90;;;;;;6181391;23;19986;-86
2021/10/31 08:50:27;;;;;;;;;;;15.40;99.90;;;;;;6182544;23;20377;-87
2021/10/31 08:52:53;;;;;;;;;;;15.50;99.90;;;;;;6180776;23;20233;-87
2021/10/31 08:55:18;;;;;;;;;;;15.60;99.90;;;;;;6185119;23;19900;-86
2021/10/31 08:57:44;;;;;;;;;;;15.60;99.90;;;;;;6183800;23;19901;-87
2021/10/31 09:00:11;;;;;;;;;;;15.70;99.90;;;;;;6183889;23;19901;-87
2021/10/31 09:02:36;;;;;;;;;;;15.70;99.90;;;;;;6182812;23;19904;-88
2021/10/31 09:05:03;;;;;;;;;;;15.80;99.90;;;;;;6186769;23;19900;-71
2021/10/31 09:07:29;;;;;;;;;;;15.90;99.90;;;;;;6192203;23;19935;-70
2021/10/31 09:09:54;;;;;;;;;;;16.10;99.90;;;;;;6192225;23;20184;-70
2021/10/31 09:12:20;;;;;;;;;;;16.20;99.90;;;;;;6192590;23;20069;-71
2021/10/31 09:14:45;;;;;;;;;;;16.30;99.90;;;;;;6192395;23;20084;-70
2021/10/31 09:17:11;;;;;;;;;;;16.40;99.90;;;;;;6192166;23;19900;-70
2021/10/31 09:19:36;;;;;;;;;;;16.40;99.90;;;;;;6191649;23;19904;-71
2021/10/31 09:22:02;;;;;;;;;;;16.40;99.90;;;;;;6192197;23;19896;-71
2021/10/31 09:24:28;;;;;;;;;;;16.40;99.90;;;;;;6192538;23;19900;-69
2021/10/31 09:26:54;;;;;;;;;;;16.40;99.90;;;;;;6191855;23;19971;-69
2021/10/31 09:29:20;;;;;;;;;;;16.40;99.90;;;;;;6192824;23;19896;-69
2021/10/31 09:31:45;;;;;;;;;;;16.50;99.90;;;;;;6192526;23;19907;-69
2021/10/31 09:34:11;;;;;;;;;;;16.60;99.90;;;;;;6191972;23;19927;-69
2021/10/31 09:36:37;;;;;;;;;;;16.80;99.90;;;;;;6192566;23;19943;-69
2021/10/31 09:39:04;;;;;;;;;;;16.80;99.90;;;;;;6193279;23;19896;-69
2021/10/31 09:41:31;;;;;;;;;;;16.90;99.90;;;;;;6193464;23;20120;-69
2021/10/31 09:44:09;;;;;;;;;;;16.90;99.90;;;;;;6193960;23;19984;-69
2021/10/31 09:46:35;;;;;;;;;;;16.90;99.90;;;;;;6192131;23;19896;-69
2021/10/31 09:49:02;;;;;;;;;;;16.90;99.90;;;;;;6191393;23;20345;-69
2021/10/31 09:51:28;;;;;;;;;;;17.00;99.90;;;;;;6193364;23;19911;-69
2021/10/31 09:53:54;;;;;;;;;;;17.10;99.90;;;;;;6193310;23;19939;-69
2021/10/31 09:56:20;;;;;;;;;;;17.20;99.90;;;;;;6193181;23;19956;-69
2021/10/31 09:58:46;;;;;;;;;;;17.40;99.90;;;;;;6193970;23;19896;-69
2021/10/31 10:01:35;;;;;;;;;;;17.40;99.90;;;;;;6192108;23;19907;-69
2021/10/31 10:04:00;;;;;;;;;;;17.50;99.90;;;;;;6191944;23;19903;-70
2021/10/31 10:06:28;;;;;;;;;;;17.50;99.90;;;;;;6194253;23;19896;-70
2021/10/31 10:09:02;;;;;;;;;;;17.40;99.90;;;;;;6190013;23;19896;-69
2021/10/31 10:11:29;;;;;;;;;;;17.30;99.90;;;;;;6188446;23;19900;-69
2021/10/31 10:14:05;;;;;;;;;;;17.30;99.90;;;;;;6191529;23;19912;-68
2021/10/31 10:16:31;;;;;;;;;;;17.30;99.90;;;;;;6183866;23;19900;-69
2021/10/31 10:18:57;;;;;;;;;;;17.30;99.90;;;;;;6183356;23;19900;-69
2021/10/31 10:21:27;;;;;;;;;;;17.10;99.90;;;;;;6185197;23;19992;-70
2021/10/31 10:23:57;;;;;;;;;;;17.10;99.90;;;;;;6104270;23;19971;-70
2021/10/31 10:26:32;;;;;;;;;;;17.00;99.90;;;;;;6124030;23;20021;-70
2021/10/31 10:29:12;;;;;;;;;;;17.10;99.90;;;;;;6123666;23;19904;-69
2021/10/31 10:31:37;;;;;;;;;;;17.30;99.90;;;;;;6123925;23;19984;-70
2021/10/31 10:34:05;;;;;;;;;;;17.40;99.90;;;;;;6124194;23;19924;-69
2021/10/31 10:36:40;;;;;;;;;;;17.40;99.90;;;;;;6123940;23;19989;-69
2021/10/31 10:39:11;;;;;;;;;;;17.40;99.90;;;;;;6123904;23;19901;-69
2021/10/31 10:41:45;;;;;;;;;;;17.40;99.90;;;;;;6123746;23;19901;-69
2021/10/31 10:44:15;;;;;;;;;;;17.40;99.90;;;;;;6124088;23;19991;-70
2021/10/31 10:46:40;;;;;;;;;;;17.40;99.90;;;;;;6123880;23;19947;-70
2021/10/31 10:49:06;;;;;;;;;;;17.40;99.90;;;;;;6123608;23;19956;-69
2021/10/31 10:51:32;;;;;;;;;;;17.40;99.90;;;;;;6123027;23;19905;-69
2021/10/31 10:54:10;;;;;;;;;;;17.40;99.90;;;;;;6123548;23;19956;-70
2021/10/31 10:56:36;;;;;;;;;;;17.40;99.90;;;;;;6123383;23;19904;-70
2021/10/31 10:59:02;;;;;;;;;;;17.30;99.90;;;;;;6123309;23;19948;-70
2021/10/31 11:01:27;;;;;;;;;;;17.20;99.90;;;;;;6097916;23;19901;-70
2021/10/31 11:03:53;;;;;;;;;;;17.10;99.90;;;;;;6123154;23;19901;-69
2021/10/31 11:06:25;;;;;;;;;;;17.00;99.90;;;;;;6096906;23;20238;-70
2021/10/31 11:09:11;;;;;;;;;;;17.10;99.90;;;;;;6123734;23;19980;-70
2021/10/31 11:11:36;;;;;;;;;;;17.10;99.90;;;;;;6123006;23;19955;-69
2021/10/31 11:14:02;;;;;;;;;;;17.00;99.90;;;;;;6123401;23;19979;-70
2021/10/31 11:16:28;;;;;;;;;;;17.00;99.90;;;;;;6123278;23;19983;-70
2021/10/31 11:18:53;;;;;;;;;;;16.90;99.90;;;;;;6123492;23;19908;-71
2021/10/31 11:21:19;;;;;;;;;;;16.80;99.90;;;;;;6123415;23;20338;-69
2021/10/31 11:23:46;;;;;;;;;;;16.70;99.90;;;;;;6123193;23;20382;-70
2021/10/31 11:26:14;;;;;;;;;;;16.60;99.90;;;;;;6126501;23;20315;-77
2021/10/31 11:28:40;;;;;;;;;;;16.50;99.90;;;;;;6121635;23;19909;-75
2021/10/31 11:31:06;;;;;;;;;;;16.40;99.90;;;;;;6124621;23;19928;-81
2021/10/31 11:33:32;;;;;;;;;;;16.20;99.90;;;;;;6132386;23;19904;-78
2021/10/31 11:35:58;;;;;;;;;;;16.00;99.90;;;;;;6134556;23;19897;-78
2021/10/31 11:38:24;;;;;;;;;;;15.80;99.90;;;;;;6133032;23;19948;-79
2021/10/31 11:40:58;;;;;;;;;;;15.60;99.90;;;;;;6134206;23;19905;-79
2021/10/31 11:43:24;;;;;;;;;;;15.50;99.90;;;;;;6133259;23;20222;-78
2021/10/31 11:45:51;;;;;;;;;;;15.40;99.90;;;;;;6132695;23;19935;-79
2021/10/31 11:48:17;;;;;;;;;;;15.40;99.90;;;;;;6098744;23;19908;-79
2021/10/31 11:51:03;;;;;;;;;;;15.30;99.90;;;;;;6128959;23;19900;-78
2021/10/31 11:53:58;;;;;;;;;;;15.30;99.90;;;;;;6096921;23;19909;-78
2021/10/31 11:56:25;;;;;;;;;;;15.30;99.90;;;;;;6090783;23;19905;-77
2021/10/31 11:58:54;;;;;;;;;;;15.40;99.90;;;;;;6121734;23;19900;-78
2021/10/31 12:01:30;;;;;;;;;;;15.40;99.90;;;;;;6122061;23;20349;-79
2021/10/31 12:03:57;;;;;;;;;;;15.40;99.90;;;;;;6121892;23;19975;-79
2021/10/31 12:06:23;;;;;;;;;;;15.30;99.90;;;;;;6121389;23;19952;-80
2021/10/31 12:08:57;;;;;;;;;;;15.30;99.90;;;;;;6122017;23;19904;-79
2021/10/31 12:11:29;;;;;;;;;;;15.30;99.90;;;;;;6122024;23;20334;-80
2021/10/31 12:13:55;;;;;;;;;;;15.20;99.90;;;;;;6122019;23;19916;-80
2021/10/31 12:16:21;;;;;;;;;;;15.10;99.90;;;;;;6121878;23;19901;-81
2021/10/31 12:18:49;;;;;;;;;;;15.00;99.90;;;;;;6121530;23;19912;-82
2021/10/31 12:21:22;;;;;;;;;;;15.00;99.90;;;;;;6121914;23;19998;-84
2021/10/31 12:24:01;;;;;;;;;;;15.00;99.90;;;;;;6121987;23;19904;-84
2021/10/31 12:26:31;;;;;;;;;;;15.00;99.90;;;;;;6122232;23;19905;-84
2021/10/31 12:29:11;;;;;;;;;;;15.10;99.90;;;;;;6121967;23;19932;-84
2021/10/31 12:31:38;;;;;;;;;;;15.20;99.90;;;;;;6122096;23;19964;-84
2021/10/31 12:34:12;;;;;;;;;;;15.30;99.90;;;;;;6122047;23;19980;-84
2021/10/31 12:36:39;;;;;;;;;;;15.40;99.90;;;;;;6122475;23;19900;-83
2021/10/31 12:39:23;;;;;;;;;;;15.60;99.90;;;;;;6122821;23;19905;-83
2021/10/31 12:42:08;;;;;;;;;;;15.60;99.90;;;;;;6122897;23;19911;-82
2021/10/31 12:44:34;;;;;;;;;;;15.60;99.90;;;;;;6122772;23;19901;-82
2021/10/31 12:47:07;;;;;;;;;;;15.70;99.90;;;;;;6122639;23;20238;-82
2021/10/31 12:49:33;;;;;;;;;;;15.70;99.90;;;;;;6123563;23;19901;-83
2021/10/31 12:52:03;;;;;;;;;;;15.80;99.90;;;;;;6122442;23;20246;-82
2021/10/31 12:54:34;;;;;;;;;;;15.80;99.90;;;;;;6122780;23;19948;-82
2021/10/31 12:57:00;;;;;;;;;;;15.90;99.90;;;;;;6122226;23;19908;-82
2021/10/31 12:59:25;;;;;;;;;;;15.90;99.90;;;;;;6129000;23;19931;-82
2021/10/31 13:02:03;;;;;;;;;;;16.00;99.90;;;;;;6122974;23;20346;-83
2021/10/31 13:04:29;;;;;;;;;;;16.00;99.90;;;;;;6124270;23;19929;-82
2021/10/31 13:06:54;;;;;;;;;;;16.20;99.90;;;;;;6124266;23;19955;-82
2021/10/31 13:09:21;;;;;;;;;;;16.40;99.90;;;;;;6123624;23;19901;-81
2021/10/31 13:11:46;;;;;;;;;;;16.50;99.90;;;;;;6127267;23;19905;-82
2021/10/31 13:14:31;;;;;;;;;;;16.60;99.90;;;;;;6128035;23;20196;-82
2021/10/31 13:16:58;;;;;;;;;;;16.60;99.90;;;;;;6135167;23;19985;-82
2021/10/31 13:19:24;;;;;;;;;;;16.60;99.90;;;;;;6130130;23;19903;-82
2021/10/31 13:21:56;;;;;;;;;;;16.70;99.90;;;;;;6127890;23;19968;-82
2021/10/31 13:24:22;;;;;;;;;;;16.70;99.90;;;;;;6125660;23;19905;-82
2021/10/31 13:26:47;;;;;;;;;;;16.80;99.90;;;;;;6123757;23;19924;-82
2021/10/31 13:29:13;;;;;;;;;;;16.80;99.90;;;;;;6124457;23;19908;-83
2021/10/31 13:31:38;;;;;;;;;;;16.80;99.90;;;;;;6124282;23;19989;-81
2021/10/31 13:34:07;;;;;;;;;;;16.90;99.90;;;;;;6124387;23;19973;-82
2021/10/31 13:36:36;;;;;;;;;;;17.00;99.90;;;;;;6124527;23;19901;-81
2021/10/31 13:39:09;;;;;;;;;;;17.10;99.90;;;;;;6125863;23;19905;-82
2021/10/31 13:41:38;;;;;;;;;;;17.20;99.90;;;;;;6124325;23;19975;-82
2021/10/31 13:44:24;;;;;;;;;;;17.00;99.90;;;;;;6123325;23;19901;-82
2021/10/31 13:47:01;;;;;;;;;;;16.90;99.90;;;;;;6123034;23;19932;-83
2021/10/31 13:49:30;;;;;;;;;;;16.80;99.90;;;;;;6124161;23;19905;-82
2021/10/31 13:51:56;;;;;;;;;;;16.60;99.90;;;;;;6124033;23;19909;-82
2021/10/31 13:54:23;;;;;;;;;;;16.40;99.90;;;;;;6123737;23;19912;-82
2021/10/31 13:56:52;;;;;;;;;;;16.40;99.90;;;;;;6124501;23;19968;-82
2021/10/31 13:59:22;;;;;;;;;;;16.40;99.90;;;;;;6124045;23;19907;-82
2021/10/31 14:01:48;;;;;;;;;;;16.50;99.90;;;;;;6124820;23;20244;-82
2021/10/31 14:04:14;;;;;;;;;;;16.80;99.90;;;;;;6124390;23;20345;-82
2021/10/31 14:06:41;;;;;;;;;;;16.90;99.90;;;;;;6098429;23;19901;-82
2021/10/31 14:09:08;;;;;;;;;;;17.00;99.90;;;;;;6124605;23;19983;-82
2021/10/31 14:11:35;;;;;;;;;;;16.90;99.90;;;;;;6122716;23;19900;-82
2021/10/31 14:14:00;;;;;;;;;;;17.00;99.90;;;;;;6097656;23;19913;-81
2021/10/31 14:16:28;;;;;;;;;;;17.00;99.90;;;;;;6097736;23;19905;-83
2021/10/31 14:18:55;;;;;;;;;;;16.90;99.90;;;;;;6125591;23;19969;-79